createdAt,value
2023-05-02T00:01:08.544Z,17.24
2023-05-02T00:04:15.288Z,17.42
2023-05-02T00:07:23.725Z,16.32
2023-05-02T00:10:30.251Z,16.39
2023-05-02T00:13:35.871Z,16.53
2023-05-02T00:16:42.483Z,16.12
2023-05-02T00:19:48.328Z,16.63
2023-05-02T00:22:59.252Z,16.77
2023-05-02T00:26:04.822Z,17.12
2023-05-02T00:29:11.248Z,17.96
2023-05-02T00:32:16.849Z,17.63
2023-05-02T00:35:23.441Z,17.20
2023-05-02T00:38:31.670Z,17.53
2023-05-02T00:41:38.218Z,17.27
2023-05-02T00:44:43.948Z,17.35
2023-05-02T00:47:50.712Z,17.78
2023-05-02T00:50:57.700Z,18.35
2023-05-02T00:54:10.136Z,18.39
2023-05-02T00:57:15.965Z,18.00
2023-05-02T01:00:23.195Z,18.99
2023-05-02T01:03:45.282Z,19.17
2023-05-02T01:07:22.322Z,19.05
2023-05-02T01:10:47.725Z,19.28
2023-05-02T01:14:02.182Z,19.34
2023-05-02T01:17:16.503Z,19.06
2023-05-02T01:20:29.742Z,18.72
2023-05-02T01:23:49.883Z,18.80
2023-05-02T01:27:14.719Z,18.61
2023-05-02T01:30:27.466Z,18.42
2023-05-02T01:33:38.169Z,18.16
2023-05-02T01:36:48.651Z,18.19
2023-05-02T01:39:57.542Z,18.23
2023-05-02T01:43:06.268Z,18.08
2023-05-02T01:46:19.003Z,17.77
2023-05-02T01:49:28.309Z,18.31
2023-05-02T01:52:35.724Z,18.31
2023-05-02T01:55:47.644Z,17.19
2023-05-02T01:58:58.625Z,17.44
2023-05-02T02:02:12.112Z,17.59
2023-05-02T02:05:23.009Z,17.59
2023-05-02T02:08:31.560Z,17.54
2023-05-02T02:11:47.523Z,17.10
2023-05-02T02:15:06.029Z,17.24
2023-05-02T02:18:23.237Z,18.04
2023-05-02T02:21:33.974Z,17.41
2023-05-02T02:24:44.339Z,17.77
2023-05-02T02:27:51.858Z,18.64
2023-05-02T02:30:59.267Z,19.06
2023-05-02T02:34:07.916Z,19.17
2023-05-02T02:37:22.347Z,19.43
2023-05-02T02:40:37.692Z,19.58
2023-05-02T02:43:56.765Z,19.85
2023-05-02T02:47:13.600Z,19.52
2023-05-02T02:50:34.566Z,19.21
2023-05-02T02:54:00.758Z,19.11
2023-05-02T02:57:19.343Z,20.12
2023-05-02T03:00:32.776Z,20.87
2023-05-02T03:03:42.928Z,21.24
2023-05-02T03:06:52.296Z,22.21
2023-05-02T03:09:59.303Z,21.84
2023-05-02T03:13:05.892Z,21.80
2023-05-02T03:16:38.071Z,21.80
2023-05-02T03:19:47.576Z,21.79
2023-05-02T03:22:59.187Z,22.49
2023-05-02T03:26:06.387Z,22.44
2023-05-02T03:29:13.775Z,22.56
2023-05-02T03:32:21.350Z,22.50
2023-05-02T03:35:27.881Z,22.75
2023-05-02T03:38:36.303Z,22.74
2023-05-02T03:41:46.721Z,22.38
2023-05-02T03:44:56.852Z,21.96
2023-05-02T03:48:06.590Z,22.70
2023-05-02T03:51:12.542Z,22.02
2023-05-02T03:54:26.336Z,22.58
2023-05-02T03:57:33.980Z,22.05
2023-05-02T04:00:41.498Z,22.08
2023-05-02T04:03:48.187Z,22.14
2023-05-02T04:06:56.928Z,22.03
2023-05-02T04:10:05.446Z,21.68
2023-05-02T04:13:16.584Z,22.60
2023-05-02T04:16:26.136Z,22.50
2023-05-02T04:19:32.804Z,21.97
2023-05-02T04:22:39.858Z,22.39
2023-05-02T04:25:57.572Z,22.17
2023-05-02T04:29:10.903Z,22.09
2023-05-02T04:32:18.576Z,21.28
2023-05-02T04:35:25.327Z,21.11
2023-05-02T04:38:32.062Z,21.27
2023-05-02T04:41:41.052Z,21.46
2023-05-02T04:44:48.214Z,22.09
2023-05-02T04:47:54.830Z,21.64
2023-05-02T04:51:01.394Z,21.97
2023-05-02T04:54:11.891Z,21.20
2023-05-02T04:57:23.304Z,21.40
2023-05-02T05:00:33.567Z,21.09
2023-05-02T05:03:42.233Z,20.86
2023-05-02T05:06:49.516Z,20.53
2023-05-02T05:09:57.143Z,20.68
2023-05-02T05:13:08.690Z,20.46
2023-05-02T05:16:15.368Z,20.85
2023-05-02T05:19:21.966Z,20.74
2023-05-02T05:22:28.653Z,20.68
2023-05-02T05:25:34.887Z,20.50
2023-05-02T05:28:46.225Z,20.06
2023-05-02T05:31:52.136Z,20.36
2023-05-02T05:35:00.431Z,20.49
2023-05-02T05:38:07.330Z,20.52
2023-05-02T05:41:16.705Z,20.51
2023-05-02T05:44:29.395Z,20.52
2023-05-02T05:47:36.345Z,20.16
2023-05-02T05:50:42.841Z,18.97
2023-05-02T05:53:49.448Z,18.74
2023-05-02T05:56:55.892Z,18.18
2023-05-02T06:00:05.109Z,17.83
2023-05-02T06:03:21.460Z,16.96
2023-05-02T06:06:28.445Z,16.61
2023-05-02T06:09:34.126Z,16.27
2023-05-02T06:12:40.633Z,14.78
2023-05-02T06:15:52.503Z,6.73
2023-05-02T06:18:59.186Z,5.30
2023-05-02T06:22:04.894Z,5.26
2023-05-02T06:25:12.579Z,5.01
2023-05-02T06:28:18.167Z,4.75
2023-05-02T06:31:27.438Z,4.62
2023-05-02T06:34:36.010Z,4.40
2023-05-02T06:37:42.423Z,4.26
2023-05-02T06:40:48.089Z,4.33
2023-05-02T06:43:54.572Z,4.42
2023-05-02T06:47:02.870Z,4.67
2023-05-02T06:50:11.765Z,4.93
2023-05-02T06:53:17.438Z,4.87
2023-05-02T06:56:25.812Z,4.85
2023-05-02T06:59:31.661Z,4.40
2023-05-02T07:02:40.740Z,4.34
2023-05-02T07:05:46.392Z,4.48
2023-05-02T07:08:53.607Z,4.89
2023-05-02T07:11:59.176Z,4.55
2023-05-02T07:15:05.846Z,5.06
2023-05-02T07:18:14.209Z,4.87
2023-05-02T07:21:21.307Z,5.13
2023-05-02T07:24:27.085Z,5.00
2023-05-02T07:27:33.644Z,4.84
2023-05-02T07:30:39.267Z,4.55
2023-05-02T07:33:48.217Z,4.65
2023-05-02T07:36:53.868Z,4.93
2023-05-02T07:40:00.574Z,4.95
2023-05-02T07:43:06.477Z,4.95
2023-05-02T07:46:12.995Z,5.24
2023-05-02T07:49:22.653Z,4.98
2023-05-02T07:52:29.841Z,5.50
2023-05-02T07:55:35.427Z,4.98
2023-05-02T07:58:41.869Z,5.16
2023-05-02T08:01:47.515Z,5.53
2023-05-02T08:04:58.416Z,5.06
2023-05-02T08:08:04.383Z,5.06
2023-05-02T08:11:13.566Z,5.08
2023-05-02T08:14:19.844Z,4.66
2023-05-02T08:17:29.275Z,4.96
2023-05-02T08:20:37.643Z,4.82
2023-05-02T08:23:46.531Z,4.49
2023-05-02T08:26:52.240Z,4.50
2023-05-02T08:30:00.588Z,4.02
2023-05-02T08:33:06.959Z,4.03
2023-05-02T08:36:21.388Z,4.20
2023-05-02T08:39:27.178Z,4.01
2023-05-02T08:42:37.265Z,4.20
2023-05-02T08:45:45.987Z,3.79
2023-05-02T08:48:55.398Z,3.68
2023-05-02T08:52:04.723Z,3.86
2023-05-02T08:55:12.503Z,3.82
2023-05-02T08:58:18.296Z,3.63
2023-05-02T09:01:31.199Z,3.73
2023-05-02T09:04:44.580Z,3.56
2023-05-02T09:07:55.423Z,3.63
2023-05-02T09:11:01.530Z,3.77
2023-05-02T09:14:18.703Z,3.76
2023-05-02T09:17:24.416Z,3.92
2023-05-02T09:20:31.131Z,3.89
2023-05-02T09:23:43.910Z,3.99
2023-05-02T09:27:03.061Z,4.10
2023-05-02T09:30:26.483Z,3.93
2023-05-02T09:33:33.925Z,4.37
2023-05-02T09:36:44.546Z,4.66
2023-05-02T09:40:10.760Z,5.22
2023-05-02T09:43:19.525Z,4.70
2023-05-02T09:46:26.280Z,4.75
2023-05-02T09:49:45.177Z,4.25
2023-05-02T09:53:05.717Z,4.36
2023-05-02T09:56:14.667Z,4.36
2023-05-02T09:59:21.166Z,4.20
2023-05-02T10:02:29.050Z,4.36
2023-05-02T10:05:40.683Z,4.50
2023-05-02T10:08:47.572Z,4.60
2023-05-02T10:11:59.989Z,4.57
2023-05-02T10:15:11.765Z,4.66
2023-05-02T10:18:29.490Z,4.76
2023-05-02T10:21:37.452Z,4.41
2023-05-02T10:24:45.478Z,4.54
2023-05-02T10:27:54.444Z,4.82
2023-05-02T10:31:04.715Z,5.23
2023-05-02T10:34:14.103Z,6.10
2023-05-02T10:37:22.710Z,6.76
2023-05-02T10:40:28.933Z,6.43
2023-05-02T10:43:41.024Z,6.61
2023-05-02T10:46:46.733Z,6.92
2023-05-02T10:49:55.345Z,6.93
2023-05-02T10:53:01.075Z,6.89
2023-05-02T10:56:21.737Z,6.51
2023-05-02T10:59:35.075Z,7.73
2023-05-02T11:02:52.658Z,7.20
2023-05-02T11:06:17.592Z,7.36
2023-05-02T11:09:37.262Z,7.51
2023-05-02T11:12:51.221Z,7.45
2023-05-02T11:16:02.030Z,7.57
2023-05-02T11:19:07.553Z,7.56
2023-05-02T11:22:34.769Z,7.38
2023-05-02T11:25:44.077Z,7.58
2023-05-02T11:28:50.710Z,7.81
2023-05-02T11:32:01.932Z,8.10
2023-05-02T11:35:10.604Z,8.29
2023-05-02T11:38:23.597Z,7.93
2023-05-02T11:41:42.769Z,7.87
2023-05-02T11:45:04.377Z,8.05
2023-05-02T11:48:20.464Z,7.98
2023-05-02T11:51:26.927Z,7.69
2023-05-02T11:54:34.371Z,8.34
2023-05-02T11:57:40.553Z,8.21
2023-05-02T12:00:49.599Z,8.39
2023-05-02T12:04:07.452Z,9.14
2023-05-02T12:07:14.383Z,9.34
2023-05-02T12:10:20.074Z,9.01
2023-05-02T12:13:29.316Z,9.54
2023-05-02T12:16:35.704Z,9.56
2023-05-02T12:19:45.361Z,9.53
2023-05-02T12:22:51.348Z,9.56
2023-05-02T12:25:59.120Z,8.94
2023-05-02T12:29:07.973Z,10.29
2023-05-02T12:32:14.919Z,12.16
2023-05-02T12:35:27.173Z,13.05
2023-05-02T12:38:34.181Z,11.11
2023-05-02T12:41:43.911Z,11.17
2023-05-02T12:44:54.545Z,11.04
2023-05-02T12:48:00.182Z,8.53
2023-05-02T12:51:09.358Z,8.91
2023-05-02T12:54:25.005Z,8.69
2023-05-02T12:57:32.122Z,8.25
2023-05-02T13:00:40.677Z,8.10
2023-05-02T13:03:48.260Z,7.06
2023-05-02T13:06:56.433Z,6.61
2023-05-02T13:10:03.378Z,6.76
2023-05-02T13:13:09.110Z,6.42
2023-05-02T13:16:15.640Z,6.16
2023-05-02T13:19:21.539Z,6.09
2023-05-02T13:22:31.396Z,6.19
2023-05-02T13:25:37.023Z,5.74
2023-05-02T13:28:43.494Z,5.45
2023-05-02T13:31:49.129Z,5.07
2023-05-02T13:34:55.585Z,4.96
2023-05-02T13:38:03.750Z,5.20
2023-05-02T13:41:10.096Z,5.43
2023-05-02T13:44:15.836Z,5.05
2023-05-02T13:47:22.740Z,4.68
2023-05-02T13:50:28.366Z,4.63
2023-05-02T13:53:37.767Z,4.36
2023-05-02T13:56:43.635Z,5.32
2023-05-02T13:59:50.086Z,8.68
2023-05-02T14:02:56.201Z,8.20
2023-05-02T14:06:02.820Z,8.36
2023-05-02T14:09:11.520Z,7.42
2023-05-02T14:12:17.913Z,5.34
2023-05-02T14:15:24.184Z,4.56
2023-05-02T14:18:32.545Z,5.98
2023-05-02T14:21:38.840Z,4.82
2023-05-02T14:24:47.994Z,3.96
2023-05-02T14:27:53.719Z,4.48
2023-05-02T14:31:00.204Z,5.18
2023-05-02T14:34:08.161Z,4.74
2023-05-02T14:37:15.399Z,4.59
2023-05-02T14:40:23.636Z,3.41
2023-05-02T14:43:32.082Z,5.75
2023-05-02T14:46:37.705Z,4.23
2023-05-02T14:49:44.100Z,4.36
2023-05-02T14:52:49.791Z,4.72
2023-05-02T14:55:58.932Z,5.44
2023-05-02T14:59:04.738Z,4.18
2023-05-02T15:02:11.323Z,3.78
2023-05-02T15:05:16.914Z,3.56
2023-05-02T15:08:23.492Z,3.37
2023-05-02T15:11:31.833Z,3.76
2023-05-02T15:14:38.362Z,3.70
2023-05-02T15:17:46.477Z,4.03
2023-05-02T15:20:52.976Z,4.44
2023-05-02T15:23:58.802Z,4.40
2023-05-02T15:27:09.687Z,3.84
2023-05-02T15:30:17.834Z,4.11
2023-05-02T15:33:24.494Z,4.43
2023-05-02T15:36:32.693Z,4.31
2023-05-02T15:39:39.359Z,6.05
2023-05-02T15:42:47.620Z,7.33
2023-05-02T15:45:55.519Z,5.77
2023-05-02T15:49:01.191Z,5.05
2023-05-02T15:52:07.731Z,6.47
2023-05-02T15:55:13.699Z,6.37
2023-05-02T15:58:23.516Z,5.62
2023-05-02T16:01:29.418Z,5.85
2023-05-02T16:04:35.902Z,5.71
2023-05-02T16:07:41.612Z,5.61
2023-05-02T16:10:48.108Z,6.50
2023-05-02T16:13:56.280Z,7.61
2023-05-02T16:17:02.750Z,7.74
2023-05-02T16:20:11.352Z,8.69
2023-05-02T16:23:19.207Z,8.63
2023-05-02T16:26:24.861Z,7.25
2023-05-02T16:29:33.947Z,6.72
2023-05-02T16:32:40.884Z,7.31
2023-05-02T16:35:47.347Z,6.66
2023-05-02T16:38:53.475Z,7.09
2023-05-02T16:41:59.889Z,7.58
2023-05-02T16:45:11.249Z,7.77
2023-05-02T16:48:19.686Z,7.63
2023-05-02T16:51:25.623Z,7.04
2023-05-02T16:54:32.114Z,6.78
2023-05-02T16:57:39.272Z,6.96
2023-05-02T17:00:50.691Z,7.43
2023-05-02T17:03:56.517Z,8.07
2023-05-02T17:07:02.845Z,8.46
2023-05-02T17:10:10.051Z,7.67
2023-05-02T17:13:16.594Z,7.76
2023-05-02T17:16:24.944Z,8.26
2023-05-02T17:19:31.650Z,7.85
2023-05-02T17:22:38.384Z,7.91
2023-05-02T17:25:45.160Z,8.04
2023-05-02T17:28:55.767Z,8.58
2023-05-02T17:32:05.128Z,12.34
2023-05-02T17:35:12.114Z,11.56
2023-05-02T17:38:18.590Z,9.93
2023-05-02T17:41:24.125Z,9.50
2023-05-02T17:44:31.631Z,8.99
2023-05-02T17:47:39.780Z,9.05
2023-05-02T17:50:46.295Z,9.17
2023-05-02T17:53:54.438Z,8.58
2023-05-02T17:57:01.112Z,8.36
2023-05-02T18:00:08.322Z,9.34
2023-05-02T18:03:35.798Z,9.89
2023-05-02T18:06:41.581Z,8.76
2023-05-02T18:09:48.044Z,9.51
2023-05-02T18:12:53.600Z,8.78
2023-05-02T18:16:00.248Z,8.52
2023-05-02T18:19:08.433Z,8.49
2023-05-02T18:22:15.028Z,8.35
2023-05-02T18:25:22.875Z,8.28
2023-05-02T18:28:29.233Z,9.26
2023-05-02T18:31:36.251Z,8.48
2023-05-02T18:34:45.346Z,7.96
2023-05-02T18:37:51.165Z,8.13
2023-05-02T18:40:57.615Z,9.90
2023-05-02T18:44:05.355Z,9.69
2023-05-02T18:47:11.841Z,9.97
2023-05-02T18:50:20.197Z,8.62
2023-05-02T18:53:29.275Z,8.31
2023-05-02T18:56:35.683Z,8.28
2023-05-02T18:59:42.171Z,8.45
2023-05-02T19:02:48.193Z,11.00
2023-05-02T19:05:57.540Z,14.47
2023-05-02T19:09:04.897Z,19.27
2023-05-02T19:12:11.360Z,22.36
2023-05-02T19:15:17.419Z,23.29
2023-05-02T19:18:24.459Z,20.19
2023-05-02T19:21:34.283Z,20.39
2023-05-02T19:24:40.741Z,27.75
2023-05-02T19:27:47.944Z,30.94
2023-05-02T19:30:54.959Z,45.46
2023-05-02T19:34:00.603Z,41.54
2023-05-02T19:37:09.593Z,24.16
2023-05-02T19:40:16.972Z,23.67
2023-05-02T19:43:26.473Z,33.87
2023-05-02T19:46:32.809Z,30.34
2023-05-02T19:49:39.201Z,32.68
2023-05-02T19:52:47.696Z,32.28
2023-05-02T19:55:54.248Z,32.75
2023-05-02T19:59:01.431Z,28.01
2023-05-02T20:02:09.627Z,29.38
2023-05-02T20:05:15.365Z,27.30
2023-05-02T20:08:27.902Z,26.21
2023-05-02T20:11:35.576Z,28.35
2023-05-02T20:14:42.468Z,26.49
2023-05-02T20:17:50.800Z,24.35
2023-05-02T20:20:57.323Z,28.09
2023-05-02T20:24:05.690Z,24.40
2023-05-02T20:27:12.122Z,22.93
2023-05-02T20:30:18.354Z,23.57
2023-05-02T20:33:27.582Z,24.43
2023-05-02T20:36:39.627Z,26.70
2023-05-02T20:39:48.564Z,27.77
2023-05-02T20:42:55.086Z,29.15
2023-05-02T20:46:01.637Z,29.30
2023-05-02T20:49:08.417Z,29.51
2023-05-02T20:52:14.857Z,31.31
2023-05-02T20:55:23.638Z,35.61
2023-05-02T20:58:30.103Z,39.34
2023-05-02T21:01:35.937Z,37.87
2023-05-02T21:04:43.173Z,36.58
2023-05-02T21:07:48.797Z,37.00
2023-05-02T21:10:58.387Z,36.95
2023-05-02T21:14:04.148Z,33.80
2023-05-02T21:17:10.600Z,32.69
2023-05-02T21:20:16.605Z,33.56
2023-05-02T21:23:23.189Z,34.98
2023-05-02T21:26:31.350Z,36.04
2023-05-02T21:29:37.771Z,36.56
2023-05-02T21:32:43.809Z,36.64
2023-05-02T21:35:50.282Z,37.87
2023-05-02T21:38:56.030Z,40.28
2023-05-02T21:42:05.292Z,41.36
2023-05-02T21:45:12.531Z,40.54
2023-05-02T21:48:21.418Z,38.35
2023-05-02T21:51:26.983Z,37.34
2023-05-02T21:54:33.382Z,37.62
2023-05-02T21:57:41.564Z,37.53
2023-05-02T22:00:48.345Z,37.95
2023-05-02T22:03:53.947Z,37.97
2023-05-02T22:07:00.361Z,38.35
2023-05-02T22:10:06.900Z,39.08
2023-05-02T22:13:18.417Z,37.67
2023-05-02T22:16:24.245Z,38.01
2023-05-02T22:19:31.512Z,38.38
2023-05-02T22:22:37.672Z,37.96
2023-05-02T22:25:46.810Z,38.90
2023-05-02T22:28:55.046Z,38.63
2023-05-02T22:32:01.468Z,37.32
2023-05-02T22:35:07.756Z,36.86
2023-05-02T22:38:20.588Z,36.87
2023-05-02T22:41:26.151Z,37.43
2023-05-02T22:44:46.756Z,37.83
2023-05-02T22:47:56.560Z,38.85
2023-05-02T22:51:03.201Z,38.26
2023-05-02T22:54:09.067Z,37.23
2023-05-02T22:57:15.430Z,35.66
2023-05-02T23:00:24.181Z,35.96
2023-05-02T23:03:30.832Z,37.29
2023-05-02T23:06:36.797Z,37.14
2023-05-02T23:09:43.292Z,37.85
2023-05-02T23:12:49.112Z,34.91
2023-05-02T23:15:59.286Z,34.75
2023-05-02T23:19:04.930Z,34.32
2023-05-02T23:22:11.344Z,34.18
2023-05-02T23:25:18.577Z,33.12
2023-05-02T23:28:29.078Z,33.33
2023-05-02T23:31:37.506Z,31.57
2023-05-02T23:34:44.157Z,30.31
2023-05-02T23:37:49.864Z,30.24
2023-05-02T23:40:56.652Z,30.73
2023-05-02T23:44:02.320Z,31.15
2023-05-02T23:47:11.661Z,30.90
2023-05-02T23:50:17.303Z,29.20
2023-05-02T23:53:23.778Z,28.52
2023-05-02T23:56:29.319Z,30.75
2023-05-02T23:59:35.725Z,31.44
